McHenry, MD (21541)

12:16 PM EDT on April 29, 2017 (GMT -0400)
Garrett College/Deep Creek Lake | | Change Station

Elev 2600 ft 39.56 °N, 79.34 °W | Updated 1 minute ago

Partly Cloudy
Partly Cloudy
70.9 °F
Feels Like 74 °F
N
6.0
Wind Variable Wind from WSW
Gusts 13.0 mph

Today
High -- | Low -- °F
--% Chance of Precip.
Yesterday
High -- | Low -- °F
Precip. -- in
Pressure 30.11 in
Visibility 10.0 miles
Clouds Mostly Cloudy 10000 ft
Heat Index 74 °F
Dew Point 61 °F
Humidity 70%
Rainfall 0.64 in
Snow Depth Not available.
6:20 AM 8:09 PM
Waxing Crescent, 14% visible
METAR KMGW 291553Z 21006KT 10SM BKN100 22/16 A3013 RMK AO2 SLP195 T02220161
Pressure 30.11 in
Visibility 10.0 miles
Clouds Mostly Cloudy 10000 ft
Heat Index 74 °F
Dew Point 61 °F
Humidity 70%
Rainfall 0.64 in
Snow Depth Not available.
6:20 AM 8:09 PM
Waxing Crescent, 14% visible
METAR KMGW 291553Z 21006KT 10SM BKN100 22/16 A3013 RMK AO2 SLP195 T02220161

Get Severe Weather Alerts

Thanks for signing up!

Be on the lookout for a verification email in your inbox.

You'll start receiving the daily forecast at 8 AM.

×

10-Day Weather Forecast

Almanac

Astronomy

Apr. 29, 2017 Rise Set
Actual Time
Civil Twilight
Nautical Twilight
Astronomical Twilight
Moon
Length of Visible Light
Length of Day
Tomorrow will be .
, % of the Moon is Illuminated

Today's Extremes

State Highs State Lows

Community

WunderPhotos

WunderBlog® & News

Nearby

Air Quality

  Air Quality AQ Index Pollutant
Not available.

Snow Depth

Station Depth Elevation

Earthquake Activity

City Distance Mag. Time & Date
Minimum magnitude displayed is 2.5.

Coastal Water Temperatures

Place Temperature

Stations

Nearby Weather Stations

Station Location Temp. Windchill Dew Point Humidity Wind Precip. Elev Updated Type
                   

Watches & Warnings

There are currently no watches in effect.